Time;durP1;ratioP1;P1;durP2;ratioP2;P2;SDS_P1;SDS_P2;PMS_P1;PMS_P2;Temp;Humidity;BMP_temperature;BMP_pressure;BME280_temperature;BME280_humidity;BME280_pressure;Samples;Min_cycle;Max_cycle;Signal;HPM_P1;HPM_P2
2023/03/07 00:00:15;;;;;;;11.80;8.75;;;;;;;4.54;92.88;99775.31;5038439;28;20109;-71
2023/03/07 00:02:42;;;;;;;9.85;8.32;;;;;;;4.54;92.97;99769.25;5034241;28;20062;-73
2023/03/07 00:05:09;;;;;;;6.40;5.57;;;;;;;4.54;92.84;99770.06;5040038;28;20034;-72
2023/03/07 00:07:36;;;;;;;7.40;6.32;;;;;;;4.53;92.43;99768.34;5059933;28;21248;-72
2023/03/07 00:10:03;;;;;;;7.15;6.30;;;;;;;4.48;92.35;99751.97;5038625;28;20041;-71
2023/03/07 00:12:30;;;;;;;6.57;5.82;;;;;;;4.47;92.26;99755.47;5030282;28;20703;-71
2023/03/07 00:14:57;;;;;;;7.13;4.50;;;;;;;4.46;92.20;99753.75;5034925;28;20129;-71
2023/03/07 00:17:24;;;;;;;5.13;4.63;;;;;;;4.45;91.93;99749.41;5041701;28;20119;-71
2023/03/07 00:19:51;;;;;;;5.00;4.50;;;;;;;4.42;91.51;99754.72;5038727;28;20049;-71
2023/03/07 00:22:18;;;;;;;5.35;4.63;;;;;;;4.39;91.30;99747.78;5027590;28;20514;-72
2023/03/07 00:24:47;;;;;;;6.78;5.35;;;;;;;4.38;91.47;99761.72;5049101;28;20045;-72
2023/03/07 00:27:14;;;;;;;7.57;5.85;;;;;;;4.35;90.97;99760.06;5049278;28;20489;-71
2023/03/07 00:29:41;;;;;;;8.68;6.47;;;;;;;4.31;90.81;99747.13;5038679;28;20060;-71
2023/03/07 00:32:08;;;;;;;8.43;6.82;;;;;;;4.22;90.77;99748.19;5026510;28;20117;-70
2023/03/07 00:34:35;;;;;;;8.77;7.45;;;;;;;4.19;91.14;99746.47;5036654;28;20068;-71
2023/03/07 00:37:02;;;;;;;8.35;7.35;;;;;;;4.17;91.90;99750.88;5044675;28;20041;-70
2023/03/07 00:39:29;;;;;;;10.82;7.63;;;;;;;4.16;92.00;99749.19;5032279;28;20209;-70
2023/03/07 00:41:56;;;;;;;10.15;8.25;;;;;;;4.16;92.24;99748.31;5057865;28;20034;-72
2023/03/07 00:44:24;;;;;;;9.20;7.28;;;;;;;4.16;92.62;99748.31;5042696;28;20034;-71
2023/03/07 00:46:51;;;;;;;8.60;6.90;;;;;;;4.15;92.67;99754.41;5053054;28;20156;-70
2023/03/07 00:49:19;;;;;;;8.82;6.40;;;;;;;4.16;92.72;99743.09;5036860;28;20069;-70
2023/03/07 00:51:47;;;;;;;7.15;6.00;;;;;;;4.15;92.92;99738.75;5028107;28;20557;-70
2023/03/07 00:54:14;;;;;;;6.60;5.20;;;;;;;4.16;93.04;99749.19;5048391;28;20038;-70
2023/03/07 00:56:41;;;;;;;6.82;5.00;;;;;;;4.18;93.16;99736.94;5037039;28;20089;-71
2023/03/07 00:59:09;;;;;;;6.68;4.82;;;;;;;4.17;92.96;99737.81;5042587;28;20521;-70
2023/03/07 01:01:37;;;;;;;5.35;4.30;;;;;;;4.19;93.03;99740.41;5056874;28;20053;-70
2023/03/07 01:04:04;;;;;;;6.82;4.50;;;;;;;4.17;92.92;99735.22;5033189;28;20042;-71
2023/03/07 01:06:32;;;;;;;5.68;4.40;;;;;;;4.17;92.95;99736.97;5030385;28;20042;-71
2023/03/07 01:09:04;;;;;;;5.40;4.43;;;;;;;4.18;93.07;99738.69;5039593;28;20048;-71
2023/03/07 01:11:34;;;;;;;5.32;3.80;;;;;;;4.15;92.99;99737.03;5041567;28;20488;-71
2023/03/07 01:14:04;;;;;;;4.13;3.40;;;;;;;4.14;92.80;99740.53;5042271;28;20469;-71
2023/03/07 01:16:36;;;;;;;5.05;3.50;;;;;;;4.13;92.74;99725.75;5032370;28;20065;-70
2023/03/07 01:19:11;;;;;;;5.63;3.72;;;;;;;4.11;92.79;99734.50;5048006;28;20053;-71
2023/03/07 01:21:40;;;;;;;4.10;3.10;;;;;;;4.10;92.92;99722.38;5041737;28;20038;-71
2023/03/07 01:24:13;;;;;;;3.40;2.88;;;;;;;4.09;93.06;99734.53;5057683;28;20041;-72
2023/03/07 01:26:41;;;;;;;3.95;2.60;;;;;;;4.10;92.77;99722.38;5045136;28;20049;-71
2023/03/07 01:29:10;;;;;;;2.55;2.10;;;;;;;4.09;92.75;99726.69;5047518;28;20053;-71
2023/03/07 01:31:38;;;;;;;2.60;1.80;;;;;;;4.10;92.54;99728.41;5042596;28;20065;-71
2023/03/07 01:34:06;;;;;;;3.65;2.05;;;;;;;4.09;92.46;99718.88;5034376;28;20041;-71
2023/03/07 01:36:36;;;;;;;4.47;2.10;;;;;;;4.09;92.36;99711.06;5045488;28;20042;-71
2023/03/07 01:39:16;;;;;;;1.80;1.48;;;;;;;4.10;92.16;99723.19;5044811;28;20042;-71
2023/03/07 01:42:06;;;;;;;2.55;1.70;;;;;;;4.08;92.18;99714.53;5032428;28;20149;-71
2023/03/07 01:45:02;;;;;;;2.20;1.63;;;;;;;4.08;92.04;99711.09;5035778;28;20042;-71
2023/03/07 01:47:47;;;;;;;1.70;1.52;;;;;;;4.06;92.37;99705.03;5044231;28;20048;-71
2023/03/07 01:50:17;;;;;;;1.83;1.63;;;;;;;4.08;91.93;99705.88;5040237;28;20436;-74
2023/03/07 01:52:51;;;;;;;2.85;1.60;;;;;;;4.07;92.10;99698.94;5031528;28;20038;-74
2023/03/07 01:55:25;;;;;;;2.20;1.73;;;;;;;4.07;92.10;99694.56;5044591;28;20553;-72
2023/03/07 01:58:04;;;;;;;2.78;1.80;;;;;;;4.07;92.03;99697.19;5005049;28;20140;-74
2023/03/07 02:00:35;;;;;;;3.20;1.90;;;;;;;4.06;92.13;99685.06;5044355;28;20049;-72
2023/03/07 02:03:09;;;;;;;2.28;1.85;;;;;;;4.08;92.42;99682.41;5041880;28;20049;-72
2023/03/07 02:05:48;;;;;;;3.40;2.22;;;;;;;4.06;92.03;99673.75;5037524;28;20553;-73
2023/03/07 02:08:21;;;;;;;3.67;2.10;;;;;;;4.04;92.27;99674.63;5041129;28;20347;-72
2023/03/07 02:10:48;;;;;;;3.63;2.20;;;;;;;4.03;92.21;99662.47;5043029;28;20120;-70
2023/03/07 02:13:16;;;;;;;3.72;2.25;;;;;;;4.04;92.46;99666.81;5044108;28;20676;-72
2023/03/07 02:15:43;;;;;;;3.50;2.35;;;;;;;4.07;92.65;99657.22;5011434;28;20038;-72
2023/03/07 02:18:18;;;;;;;3.50;2.60;;;;;;;4.07;92.64;99662.44;5040321;28;20096;-71
2023/03/07 02:20:59;;;;;;;2.65;2.35;;;;;;;4.09;92.77;99663.25;5040258;28;20545;-72
2023/03/07 02:23:51;;;;;;;4.05;2.72;;;;;;;4.11;92.66;99648.44;5034377;28;20504;-72
2023/03/07 02:26:22;;;;;;;3.53;2.92;;;;;;;4.10;92.95;99659.75;5041619;28;20517;-71
2023/03/07 02:28:49;;;;;;;3.95;2.85;;;;;;;4.10;92.81;99655.38;5024251;28;20053;-71
2023/03/07 02:31:17;;;;;;;3.53;2.80;;;;;;;4.11;92.94;99656.25;5020949;28;20042;-71
2023/03/07 02:33:44;;;;;;;4.40;3.50;;;;;;;4.13;93.06;99651.84;5043547;28;20129;-72
2023/03/07 02:36:34;;;;;;;4.53;3.60;;;;;;;4.15;93.06;99644.84;5044211;28;20115;-72
2023/03/07 02:39:11;;;;;;;5.07;3.85;;;;;;;4.15;93.13;99650.06;5038916;28;20057;-72
2023/03/07 02:41:39;;;;;;;5.85;4.18;;;;;;;4.16;93.15;99652.66;5043315;28;20104;-72
2023/03/07 02:44:18;;;;;;;7.97;4.45;;;;;;;4.17;93.25;99643.91;5039129;28;20048;-73
2023/03/07 02:46:45;;;;;;;6.05;4.75;;;;;;;4.18;93.45;99640.41;5029409;28;20048;-72
2023/03/07 02:49:13;;;;;;;5.85;4.70;;;;;;;4.18;93.19;99634.34;5040142;28;20049;-73
2023/03/07 02:51:40;;;;;;;7.50;5.03;;;;;;;4.15;93.39;99637.91;5042952;28;20466;-72
2023/03/07 02:54:07;;;;;;;6.40;4.90;;;;;;;4.12;93.42;99634.50;5029967;28;20497;-72
2023/03/07 02:56:35;;;;;;;5.55;4.60;;;;;;;4.14;93.60;99644.00;5024719;28;20565;-74
2023/03/07 02:59:02;;;;;;;7.80;5.10;;;;;;;4.13;93.72;99633.59;5036334;28;20058;-73
2023/03/07 03:01:30;;;;;;;6.43;4.97;;;;;;;4.14;93.80;99636.19;5041166;28;20038;-73
2023/03/07 03:03:57;;;;;;;5.45;4.85;;;;;;;4.14;93.54;99632.69;5033368;28;20133;-74
2023/03/07 03:06:24;;;;;;;6.78;4.57;;;;;;;4.15;93.61;99635.28;5059871;28;20041;-73
2023/03/07 03:08:51;;;;;;;6.25;4.90;;;;;;;4.17;93.82;99640.47;5041498;28;20513;-74
2023/03/07 03:11:18;;;;;;;6.72;5.38;;;;;;;4.16;93.60;99636.13;5029835;28;20038;-74
2023/03/07 03:13:45;;;;;;;7.28;5.28;;;;;;;4.15;93.60;99631.81;5020795;28;20046;-73
2023/03/07 03:16:12;;;;;;;5.93;5.20;;;;;;;4.16;93.78;99636.13;5065821;28;20037;-73
2023/03/07 03:18:39;;;;;;;7.05;5.38;;;;;;;4.13;93.54;99644.00;5043850;28;20038;-73
2023/03/07 03:21:11;;;;;;;6.72;5.57;;;;;;;4.14;93.62;99635.31;5054952;28;20049;-76
2023/03/07 03:23:39;;;;;;;6.75;5.63;;;;;;;4.12;93.58;99629.28;5044226;28;20034;-70
2023/03/07 03:26:10;;;;;;;7.57;5.57;;;;;;;4.12;93.89;99637.09;5028071;28;20048;-70
2023/03/07 03:28:38;;;;;;;6.90;5.25;;;;;;;4.11;93.55;99638.84;5061299;28;20202;-70
2023/03/07 03:31:10;;;;;;;7.45;5.65;;;;;;;4.10;93.78;99636.28;5043983;28;20739;-70
2023/03/07 03:33:38;;;;;;;6.65;5.93;;;;;;;4.10;93.88;99636.28;5048214;28;20059;-71
2023/03/07 03:36:15;;;;;;;6.53;5.68;;;;;;;4.10;94.16;99628.47;5053347;28;20061;-70
2023/03/07 03:38:44;;;;;;;6.07;5.28;;;;;;;4.09;94.03;99635.41;5056484;28;20038;-74
2023/03/07 03:41:16;;;;;;;7.22;5.82;;;;;;;4.08;94.12;99633.69;5040539;28;20602;-73
2023/03/07 03:43:46;;;;;;;6.13;5.23;;;;;;;4.08;94.26;99633.69;5026095;28;20068;-74
2023/03/07 03:46:15;;;;;;;7.07;5.13;;;;;;;4.07;94.19;99626.75;5059355;28;20879;-72
2023/03/07 03:48:43;;;;;;;6.82;5.28;;;;;;;4.07;94.21;99620.69;5033691;28;20045;-73
2023/03/07 03:51:15;;;;;;;6.63;5.35;;;;;;;4.07;94.26;99626.75;5032092;28;20046;-73
2023/03/07 03:53:42;;;;;;;5.32;4.50;;;;;;;4.05;94.24;99618.13;5026772;28;20125;-73
2023/03/07 03:56:16;;;;;;;6.57;5.03;;;;;;;4.06;94.43;99614.63;5041657;28;20092;-73
2023/03/07 03:58:54;;;;;;;9.13;5.05;;;;;;;4.05;94.36;99612.91;5043561;28;20087;-73
2023/03/07 04:01:25;;;;;;;6.03;4.95;;;;;;;4.05;94.43;99618.13;5072865;28;20777;-73
2023/03/07 04:03:53;;;;;;;7.30;5.00;;;;;;;4.03;94.27;99610.31;5036108;28;20052;-72
2023/03/07 04:06:31;;;;;;;8.73;5.25;;;;;;;4.02;94.46;99606.00;5025663;28;20033;-73
2023/03/07 04:09:01;;;;;;;7.60;5.40;;;;;;;3.97;94.23;99605.25;5064064;28;20046;-72
2023/03/07 04:11:29;;;;;;;6.75;5.15;;;;;;;3.99;94.25;99608.69;5028666;28;20049;-72
2023/03/07 04:13:56;;;;;;;7.72;5.28;;;;;;;3.99;94.49;99594.78;5055302;28;20123;-72
2023/03/07 04:16:23;;;;;;;6.38;5.18;;;;;;;3.99;94.68;99593.06;5036154;28;20053;-70
2023/03/07 04:18:51;;;;;;;6.07;4.70;;;;;;;4.00;94.63;99599.97;5026573;28;20069;-71
2023/03/07 04:21:20;;;;;;;9.52;5.55;;;;;;;4.02;94.57;99590.34;5038589;28;20116;-71
2023/03/07 04:23:49;;;;;;;7.30;5.28;;;;;;;3.99;94.47;99581.75;5028654;28;20066;-70
2023/03/07 04:26:16;;;;;;;6.70;5.07;;;;;;;3.99;94.56;99582.63;5046016;28;20593;-70
2023/03/07 04:28:43;;;;;;;5.97;4.70;;;;;;;3.98;94.59;99583.50;5028649;28;20057;-70
2023/03/07 04:31:24;;;;;;;6.40;4.60;;;;;;;3.99;94.59;99582.63;5041710;28;20565;-70
2023/03/07 04:33:54;;;;;;;5.00;4.13;;;;;;;4.00;94.63;99578.25;5058049;28;20038;-70
2023/03/07 04:36:23;;;;;;;5.05;4.22;;;;;;;4.00;94.65;99566.06;5014447;28;20045;-70
2023/03/07 04:38:51;;;;;;;8.55;4.07;;;;;;;4.00;94.58;99573.03;5045315;28;20065;-71
2023/03/07 04:41:24;;;;;;;5.28;4.28;;;;;;;4.01;94.42;99565.19;5040883;28;20046;-73
2023/03/07 04:43:56;;;;;;;5.38;4.00;;;;;;;3.99;94.49;99559.16;5039392;28;20344;-72
2023/03/07 04:46:25;;;;;;;5.70;3.95;;;;;;;3.98;94.53;99560.03;5044103;28;20048;-71
2023/03/07 04:48:52;;;;;;;7.35;4.43;;;;;;;3.97;94.66;99555.72;5039333;28;20116;-73
2023/03/07 04:51:20;;;;;;;4.93;4.13;;;;;;;3.99;94.51;99553.06;5041202;28;20033;-72
2023/03/07 04:53:48;;;;;;;4.93;4.15;;;;;;;3.97;94.36;99550.50;5041475;28;20041;-73
2023/03/07 04:56:16;;;;;;;4.32;3.50;;;;;;;3.97;94.40;99557.47;5038972;28;20046;-72
2023/03/07 04:58:44;;;;;;;5.38;4.15;;;;;;;3.97;94.58;99552.25;5046322;28;20046;-73
2023/03/07 05:01:12;;;;;;;4.82;3.60;;;;;;;3.94;94.47;99550.56;5050918;28;20041;-73
2023/03/07 05:03:40;;;;;;;4.97;3.75;;;;;;;3.96;94.49;99540.94;5059699;28;20128;-73
2023/03/07 05:06:13;;;;;;;4.75;3.60;;;;;;;3.94;94.34;99550.56;5041188;28;20041;-73
2023/03/07 05:08:42;;;;;;;5.78;3.42;;;;;;;3.93;94.38;99542.78;5041723;28;20049;-74
2023/03/07 05:11:09;;;;;;;4.45;3.45;;;;;;;3.95;94.53;99548.81;5031377;28;20200;-72
2023/03/07 05:13:36;;;;;;;4.22;3.33;;;;;;;3.96;94.65;99532.28;5030170;28;20702;-73
2023/03/07 05:16:04;;;;;;;3.70;3.00;;;;;;;3.94;94.54;99540.13;5025000;28;20082;-73
2023/03/07 05:18:31;;;;;;;6.15;3.25;;;;;;;3.95;94.36;99534.03;5033776;28;20052;-73
2023/03/07 05:20:59;;;;;;;4.20;3.20;;;;;;;3.96;94.45;99537.50;5039674;28;20129;-72
2023/03/07 05:23:27;;;;;;;4.68;3.25;;;;;;;3.94;94.45;99534.06;5032917;28;20058;-74
2023/03/07 05:25:55;;;;;;;4.15;2.63;;;;;;;3.94;94.33;99536.69;5036603;28;20037;-74
2023/03/07 05:28:23;;;;;;;4.00;3.33;;;;;;;3.92;94.35;99530.63;5041260;28;20046;-74
2023/03/07 05:30:51;;;;;;;4.90;3.50;;;;;;;3.92;94.49;99521.03;5036434;28;20038;-73
2023/03/07 05:33:19;;;;;;;4.32;3.00;;;;;;;3.93;94.39;99527.13;5038305;28;20054;-72
2023/03/07 05:35:47;;;;;;;5.32;3.35;;;;;;;3.88;94.51;99520.28;5043103;28;20067;-74
2023/03/07 05:38:14;;;;;;;3.97;3.30;;;;;;;3.88;94.60;99527.25;5040221;28;20147;-73
2023/03/07 05:40:41;;;;;;;5.97;3.58;;;;;;;3.87;94.64;99523.75;5041664;28;20042;-74
2023/03/07 05:43:10;;;;;;;6.05;3.50;;;;;;;3.87;94.48;99536.81;5034871;28;20098;-73
2023/03/07 05:45:37;;;;;;;7.30;3.45;;;;;;;3.87;94.73;99523.75;5044182;28;20048;-73
2023/03/07 05:48:05;;;;;;;4.45;3.35;;;;;;;3.87;94.69;99528.97;5038792;28;20142;-73
2023/03/07 05:50:32;;;;;;;8.18;3.75;;;;;;;3.95;95.10;99531.41;5042571;28;20124;-69
2023/03/07 05:52:59;;;;;;;8.40;3.83;;;;;;;3.99;95.21;99530.47;5018272;28;20038;-69
2023/03/07 05:55:29;;;;;;;6.25;3.60;;;;;;;4.03;95.43;99533.84;5044676;28;20045;-69
2023/03/07 05:57:57;;;;;;;6.97;3.63;;;;;;;4.03;95.35;99521.66;5049927;28;20575;-69
2023/03/07 06:00:24;;;;;;;4.55;3.00;;;;;;;4.02;95.36;99525.16;5039553;28;20860;-70
2023/03/07 06:02:55;;;;;;;6.18;3.53;;;;;;;4.08;95.46;99526.75;5054777;28;20124;-70
2023/03/07 06:05:23;;;;;;;5.32;3.50;;;;;;;4.02;95.00;99532.13;5040095;28;20913;-69
2023/03/07 06:07:51;;;;;;;5.35;3.60;;;;;;;3.92;94.84;99535.84;5051507;28;20506;-71
2023/03/07 06:10:19;;;;;;;5.30;3.40;;;;;;;3.87;94.84;99531.59;5047336;28;20049;-71
2023/03/07 06:12:52;;;;;;;5.25;3.63;;;;;;;3.80;95.26;99534.41;5041175;28;20421;-71
2023/03/07 06:15:21;;;;;;;8.95;6.55;;;;;;;3.72;94.77;99535.41;5061352;28;20038;-71
2023/03/07 06:17:55;;;;;;;9.10;6.82;;;;;;;3.62;94.74;99530.47;5056600;28;20056;-71
2023/03/07 06:20:23;;;;;;;10.52;7.68;;;;;;;3.50;94.56;99534.19;5043425;28;20116;-71
2023/03/07 06:22:53;;;;;;;11.02;7.97;;;;;;;3.40;94.90;99529.19;5044161;28;20192;-70
2023/03/07 06:25:20;;;;;;;12.45;8.48;;;;;;;3.38;95.43;99528.38;5041979;28;20041;-71
2023/03/07 06:27:48;;;;;;;15.43;8.73;;;;;;;3.33;95.66;99530.19;5042979;28;20058;-70
2023/03/07 06:30:16;;;;;;;11.27;8.35;;;;;;;3.28;95.75;99531.19;5034934;28;20066;-71
2023/03/07 06:32:44;;;;;;;7.70;5.30;;;;;;;3.25;95.94;99529.50;5023698;28;20049;-70
2023/03/07 06:35:11;;;;;;;7.22;5.18;;;;;;;3.20;96.34;99528.75;5043848;28;20052;-70
2023/03/07 06:37:38;;;;;;;15.43;8.43;;;;;;;3.18;96.36;99533.13;5029881;28;20097;-70
2023/03/07 06:40:08;;;;;;;9.95;6.53;;;;;;;3.15;96.87;99530.59;5041983;28;20056;-71
2023/03/07 06:42:37;;;;;;;14.13;8.73;;;;;;;3.11;97.24;99532.41;5042377;28;20034;-70
2023/03/07 06:45:05;;;;;;;12.85;9.43;;;;;;;3.12;97.38;99531.53;5049048;28;20614;-70
2023/03/07 06:47:33;;;;;;;13.30;9.57;;;;;;;3.09;97.48;99532.44;5030485;28;20120;-70
2023/03/07 06:50:01;;;;;;;10.60;7.47;;;;;;;3.10;97.81;99533.28;5049139;28;20587;-71
2023/03/07 06:52:30;;;;;;;9.68;6.38;;;;;;;3.06;97.75;99535.09;5039822;28;20046;-70
2023/03/07 06:54:58;;;;;;;5.78;3.78;;;;;;;3.00;96.99;99537.81;5033383;28;20154;-71
2023/03/07 06:57:25;;;;;;;5.90;4.20;;;;;;;2.91;96.83;99549.28;5058784;28;20045;-71
2023/03/07 06:59:52;;;;;;;6.40;3.92;;;;;;;2.86;97.20;99548.50;5046175;28;20033;-70
2023/03/07 07:02:19;;;;;;;6.22;3.83;;;;;;;2.84;97.23;99546.81;5049512;28;20056;-71
2023/03/07 07:04:46;;;;;;;6.60;4.30;;;;;;;2.79;97.53;99544.31;5046580;28;20543;-70
2023/03/07 07:07:14;;;;;;;6.45;4.07;;;;;;;2.76;97.88;99558.25;5046066;28;20105;-70
2023/03/07 07:09:41;;;;;;;5.88;4.85;;;;;;;2.72;98.00;99545.31;5048947;28;20065;-70
2023/03/07 07:12:08;;;;;;;7.70;4.60;;;;;;;2.69;97.98;99547.97;5045030;28;20526;-70
2023/03/07 07:14:35;;;;;;;8.20;5.88;;;;;;;2.67;98.39;99548.00;5036207;28;20056;-70
2023/03/07 07:17:02;;;;;;;6.22;5.28;;;;;;;2.67;98.34;99557.53;5020088;28;20408;-70
2023/03/07 07:19:30;;;;;;;9.85;5.68;;;;;;;2.60;98.56;99547.25;5029106;28;20049;-70
2023/03/07 07:21:58;;;;;;;7.30;5.97;;;;;;;2.58;98.60;99550.78;5015899;28;20041;-71
2023/03/07 07:24:26;;;;;;;8.65;5.13;;;;;;;2.52;97.73;99551.75;5047147;28;20037;-70
2023/03/07 07:26:54;;;;;;;6.78;5.75;;;;;;;2.44;97.61;99553.63;5047844;28;20524;-70
2023/03/07 07:29:22;;;;;;;9.00;6.25;;;;;;;2.38;98.06;99558.94;5046900;28;20057;-70
2023/03/07 07:31:50;;;;;;;9.82;6.95;;;;;;;2.32;98.42;99568.56;5027324;28;20045;-71
2023/03/07 07:34:19;;;;;;;8.77;5.15;;;;;;;2.31;98.78;99561.66;5052201;28;20113;-71
2023/03/07 07:36:47;;;;;;;8.60;5.43;;;;;;;2.31;98.88;99564.25;5045003;28;20049;-70
2023/03/07 07:39:14;;;;;;;7.82;5.07;;;;;;;2.30;99.01;99562.53;5047276;28;20096;-70
2023/03/07 07:41:44;;;;;;;8.68;5.50;;;;;;;2.25;98.72;99561.72;5046880;28;20046;-70
2023/03/07 07:44:12;;;;;;;8.07;4.88;;;;;;;2.19;98.65;99574.84;5044170;28;20042;-70
2023/03/07 07:46:52;;;;;;;6.60;4.50;;;;;;;2.13;98.35;99573.19;5013504;28;20556;-70
2023/03/07 07:49:20;;;;;;;7.93;5.88;;;;;;;2.08;98.33;99567.22;5011308;28;20038;-70
2023/03/07 07:51:48;;;;;;;9.15;5.40;;;;;;;2.04;98.69;99565.53;5051553;28;20110;-70
2023/03/07 07:54:16;;;;;;;8.00;5.72;;;;;;;2.01;98.90;99568.19;5050340;28;20123;-70
2023/03/07 07:56:43;;;;;;;9.85;6.18;;;;;;;2.01;98.93;99581.19;5049688;28;20038;-70
2023/03/07 07:59:11;;;;;;;8.73;6.80;;;;;;;2.00;98.82;99587.25;5047726;28;20535;-69
2023/03/07 08:01:38;;;;;;;8.95;7.03;;;;;;;1.94;98.57;99585.63;5064506;28;20117;-69
2023/03/07 08:04:05;;;;;;;9.90;7.05;;;;;;;1.93;98.69;99583.91;5041728;28;20549;-69
2023/03/07 08:06:32;;;;;;;9.23;6.40;;;;;;;1.86;98.75;99593.53;5070394;28;20604;-69
2023/03/07 08:08:59;;;;;;;8.40;5.40;;;;;;;1.83;98.76;99598.78;5042724;28;20169;-69
2023/03/07 08:11:26;;;;;;;5.95;4.00;;;;;;;1.86;98.53;99606.53;5049021;28;20041;-69
2023/03/07 08:13:54;;;;;;;7.40;4.60;;;;;;;1.82;98.41;99615.25;5046855;28;20546;-69
2023/03/07 08:16:23;;;;;;;6.53;3.78;;;;;;;1.82;98.75;99609.22;5031202;28;20041;-69
2023/03/07 08:18:57;;;;;;;5.60;3.72;;;;;;;1.81;99.13;99620.47;5046479;28;20537;-69
2023/03/07 08:21:25;;;;;;;5.60;3.05;;;;;;;1.77;98.90;99619.66;5059869;28;20045;-69
2023/03/07 08:23:54;;;;;;;5.97;2.90;;;;;;;1.73;98.91;99611.94;5045371;28;20037;-69
2023/03/07 08:26:22;;;;;;;4.40;2.30;;;;;;;1.66;98.69;99613.75;5028908;28;20038;-69
2023/03/07 08:28:49;;;;;;;5.93;2.13;;;;;;;1.56;98.44;99623.38;5027112;28;20058;-69
2023/03/07 08:31:22;;;;;;;4.75;2.40;;;;;;;1.50;98.18;99628.69;5046145;28;20049;-69
2023/03/07 08:33:50;;;;;;;3.55;2.17;;;;;;;1.43;98.21;99627.00;5046814;28;20564;-70
2023/03/07 08:36:18;;;;;;;7.72;2.42;;;;;;;1.38;98.41;99625.34;5060605;28;20041;-69
2023/03/07 08:38:50;;;;;;;3.85;2.50;;;;;;;1.37;98.79;99636.59;5057213;28;20033;-69
2023/03/07 08:41:20;;;;;;;4.22;2.40;;;;;;;1.37;99.18;99633.16;5047179;28;20038;-69
2023/03/07 08:43:47;;;;;;;5.18;2.50;;;;;;;1.37;99.49;99633.16;5045902;28;20037;-70
2023/03/07 08:46:14;;;;;;;5.85;2.50;;;;;;;1.40;99.55;99635.72;5047403;28;20609;-69
2023/03/07 08:48:41;;;;;;;5.95;2.30;;;;;;;1.39;99.41;99628.78;5046354;28;20600;-70
2023/03/07 08:51:14;;;;;;;7.35;2.65;;;;;;;1.42;99.61;99636.56;5058596;28;20041;-69
2023/03/07 08:53:43;;;;;;;6.00;2.50;;;;;;;1.46;99.15;99639.97;5055300;28;20430;-70
2023/03/07 08:56:14;;;;;;;5.72;2.70;;;;;;;1.45;99.14;99630.44;5042295;28;20037;-69
2023/03/07 08:58:42;;;;;;;4.28;2.63;;;;;;;1.44;99.02;99637.41;5046840;28;20037;-69
2023/03/07 09:01:09;;;;;;;5.20;2.72;;;;;;;1.41;99.06;99632.22;5048072;28;20050;-69
2023/03/07 09:03:36;;;;;;;6.40;2.70;;;;;;;1.42;99.04;99631.34;5039798;28;20045;-69
2023/03/07 09:06:04;;;;;;;4.35;2.70;;;;;;;1.45;99.13;99628.72;5061361;28;20037;-69
2023/03/07 09:08:31;;;;;;;6.13;3.10;;;;;;;1.46;99.32;99632.19;5062197;28;20047;-69
2023/03/07 09:11:02;;;;;;;5.15;3.13;;;;;;;1.52;99.61;99632.13;5047523;28;20037;-69
2023/03/07 09:13:29;;;;;;;4.95;3.58;;;;;;;1.57;99.55;99619.91;5040165;28;20116;-69
2023/03/07 09:16:06;;;;;;;4.45;3.40;;;;;;;1.60;99.24;99624.22;5028044;28;20053;-69
2023/03/07 09:18:34;;;;;;;7.13;3.40;;;;;;;1.60;99.09;99624.22;5042646;28;20042;-68
2023/03/07 09:21:04;;;;;;;7.60;3.70;;;;;;;1.61;99.21;99625.94;5062459;28;20574;-69
2023/03/07 09:23:32;;;;;;;8.65;4.53;;;;;;;1.67;99.73;99631.91;5045213;28;20554;-70
2023/03/07 09:26:00;;;;;;;12.75;8.27;;;;;;;1.73;100.00;99636.16;5061646;28;20052;-68
2023/03/07 09:28:27;;;;;;;11.95;7.65;;;;;;;1.80;100.00;99636.94;5043272;28;20037;-70
2023/03/07 09:30:54;;;;;;;12.52;8.45;;;;;;;1.85;100.00;99638.59;5039150;28;20461;-69
2023/03/07 09:33:22;;;;;;;11.60;7.32;;;;;;;1.89;99.78;99636.81;5034577;28;20042;-68
2023/03/07 09:35:49;;;;;;;11.80;6.10;;;;;;;1.92;99.83;99635.91;5027702;28;20049;-68
2023/03/07 09:38:16;;;;;;;6.78;4.38;;;;;;;1.94;99.97;99632.41;5042095;28;20125;-68
2023/03/07 09:40:46;;;;;;;10.70;4.72;;;;;;;1.98;100.00;99635.84;5051997;28;20048;-70
2023/03/07 09:43:25;;;;;;;7.78;4.43;;;;;;;2.04;100.00;99633.16;5065485;28;20082;-69
2023/03/07 09:46:49;;;;;;;6.43;3.97;;;;;;;2.09;100.00;99631.31;5041198;28;20033;-69
2023/03/07 09:49:33;;;;;;;6.25;3.92;;;;;;;2.13;100.00;99645.16;5042423;28;20045;-69
2023/03/07 09:52:02;;;;;;;8.48;4.72;;;;;;;2.19;100.00;99637.25;5047248;28;20095;-70
2023/03/07 09:54:59;;;;;;;5.93;3.90;;;;;;;2.32;100.00;99635.31;5042256;28;20040;-70
2023/03/07 09:57:33;;;;;;;5.28;4.03;;;;;;;2.35;99.50;99642.19;5023426;28;20050;-70
2023/03/07 10:00:20;;;;;;;7.63;4.30;;;;;;;2.25;99.04;99644.09;5033016;28;20575;-70
2023/03/07 10:03:12;;;;;;;6.30;4.40;;;;;;;2.28;99.29;99644.06;5041164;28;20053;-68
2023/03/07 10:05:47;;;;;;;10.10;5.88;;;;;;;2.32;99.60;99640.50;5034273;28;20052;-71
2023/03/07 10:08:22;;;;;;;9.27;5.40;;;;;;;2.41;99.53;99642.97;5052111;28;20037;-69
2023/03/07 10:11:07;;;;;;;9.70;6.57;;;;;;;2.47;99.88;99642.00;5052450;28;20037;-69
2023/03/07 10:13:56;;;;;;;11.75;7.40;;;;;;;2.55;100.00;99645.34;5045061;28;20029;-69
2023/03/07 10:16:49;;;;;;;8.05;4.53;;;;;;;2.62;99.30;99641.78;5062539;28;20048;-68
2023/03/07 10:19:56;;;;;;;6.05;4.05;;;;;;;2.67;98.26;99646.91;5047297;28;20045;-70
2023/03/07 10:22:47;;;;;;;5.95;4.07;;;;;;;2.66;97.32;99639.09;5039092;28;20105;-69
2023/03/07 10:26:00;;;;;;;7.07;5.25;;;;;;;2.66;97.49;99645.19;5039958;28;20049;-71
2023/03/07 10:28:34;;;;;;;8.40;5.03;;;;;;;2.78;98.30;99641.50;5042832;28;20088;-69
2023/03/07 10:31:24;;;;;;;7.10;4.68;;;;;;;2.85;98.01;99643.09;5025463;28;20038;-69
2023/03/07 10:33:53;;;;;;;7.30;4.60;;;;;;;2.86;98.10;99647.44;5057399;28;20532;-69
2023/03/07 10:36:48;;;;;;;7.65;4.90;;;;;;;2.92;98.21;99647.34;5054900;28;20386;-69
2023/03/07 10:39:51;;;;;;;6.82;4.57;;;;;;;2.95;98.24;99649.88;5045660;28;20111;-69
2023/03/07 10:42:22;;;;;;;8.43;4.35;;;;;;;2.97;97.42;99652.47;5046073;28;20057;-69
2023/03/07 10:44:50;;;;;;;6.30;4.32;;;;;;;2.98;97.68;99654.19;5078218;28;20042;-69
2023/03/07 10:47:21;;;;;;;6.63;4.20;;;;;;;3.01;97.36;99655.88;5048364;28;20052;-69
2023/03/07 10:49:55;;;;;;;8.73;4.40;;;;;;;3.02;98.12;99653.22;5048554;28;20042;-68
2023/03/07 10:52:40;;;;;;;7.95;4.38;;;;;;;3.14;97.91;99646.06;5024883;28;20042;-69
2023/03/07 10:55:43;;;;;;;5.55;3.83;;;;;;;3.20;96.98;99640.75;5025723;28;20562;-69
2023/03/07 10:58:25;;;;;;;5.20;3.72;;;;;;;3.25;97.03;99644.13;5044852;28;20133;-69
2023/03/07 11:01:05;;;;;;;5.60;3.90;;;;;;;3.39;97.13;99651.66;5041767;28;20045;-69
2023/03/07 11:03:51;;;;;;;4.68;3.47;;;;;;;3.51;95.88;99645.38;5046357;28;20675;-71
2023/03/07 11:06:51;;;;;;;6.45;4.05;;;;;;;3.57;95.97;99633.03;5045721;28;20038;-69
2023/03/07 11:09:21;;;;;;;4.50;2.90;;;;;;;3.73;96.52;99641.41;5044508;28;20124;-69
2023/03/07 11:12:03;;;;;;;3.72;2.72;;;;;;;3.85;94.66;99636.81;5064301;28;20049;-69
2023/03/07 11:14:50;;;;;;;5.93;3.10;;;;;;;3.95;95.70;99643.53;5046175;28;20103;-69
2023/03/07 11:17:30;;;;;;;4.40;3.53;;;;;;;4.09;96.62;99647.59;5042690;28;20041;-69
2023/03/07 11:19:57;;;;;;;4.78;3.00;;;;;;;4.17;97.03;99641.31;5040031;28;20052;-69
2023/03/07 11:22:34;;;;;;;5.90;3.53;;;;;;;4.20;96.65;99643.84;5045034;28;20042;-69
2023/03/07 11:25:07;;;;;;;7.00;3.30;;;;;;;4.30;97.10;99648.84;5043338;28;20038;-69
2023/03/07 11:27:50;;;;;;;4.13;2.90;;;;;;;4.42;97.25;99645.94;5044215;28;20056;-69
2023/03/07 11:30:22;;;;;;;12.23;3.28;;;;;;;4.54;98.03;99638.72;5027364;28;20052;-69
2023/03/07 11:33:06;;;;;;;3.72;2.25;;;;;;;4.60;98.53;99636.81;5021565;28;20037;-69
2023/03/07 11:36:00;;;;;;;4.95;2.50;;;;;;;4.64;98.12;99640.22;5048041;28;20072;-69
2023/03/07 11:38:50;;;;;;;4.38;2.20;;;;;;;4.50;98.00;99640.56;5063169;28;20037;-69
2023/03/07 11:41:40;;;;;;;3.45;1.90;;;;;;;4.40;97.26;99636.44;5053280;28;20065;-69
2023/03/07 11:44:29;;;;;;;2.78;2.00;;;;;;;4.24;97.10;99638.56;5059954;28;20042;-69
2023/03/07 11:47:17;;;;;;;3.75;1.88;;;;;;;4.07;95.32;99645.00;5064519;28;20514;-71
2023/03/07 11:50:04;;;;;;;4.40;2.20;;;;;;;3.93;94.84;99641.88;5029309;28;20030;-69
2023/03/07 11:53:29;;;;;;;3.08;2.05;;;;;;;3.94;95.72;99630.56;5035472;28;20042;-70
2023/03/07 11:56:23;;;;;;;5.30;2.63;;;;;;;4.08;94.88;99640.66;5037629;28;20050;-69
2023/03/07 11:59:43;;;;;;;4.63;2.80;;;;;;;4.03;94.51;99636.41;5046429;28;20827;-69
2023/03/07 12:03:02;;;;;;;4.40;2.80;;;;;;;4.03;95.31;99639.00;5046977;28;20069;-70
2023/03/07 12:05:57;;;;;;;4.90;2.78;;;;;;;4.12;95.40;99634.50;5042806;28;20560;-71